sensor_id;sensor_type;location;lat;lon;timestamp;temperature;humidity
66144;SHT31;52947;50.842;6.084;2023-04-03T00:00:47;1.33;87.00
66144;SHT31;52947;50.842;6.084;2023-04-03T00:03:16;1.37;87.16
66144;SHT31;52947;50.842;6.084;2023-04-03T00:05:45;1.39;86.68
66144;SHT31;52947;50.842;6.084;2023-04-03T00:08:13;1.44;86.45
66144;SHT31;52947;50.842;6.084;2023-04-03T00:10:41;1.47;86.53
66144;SHT31;52947;50.842;6.084;2023-04-03T00:13:10;1.46;86.51
66144;SHT31;52947;50.842;6.084;2023-04-03T00:15:39;1.41;86.41
66144;SHT31;52947;50.842;6.084;2023-04-03T00:18:07;1.29;86.94
66144;SHT31;52947;50.842;6.084;2023-04-03T00:20:35;1.39;86.60
66144;SHT31;52947;50.842;6.084;2023-04-03T00:23:05;1.24;86.81
66144;SHT31;52947;50.842;6.084;2023-04-03T00:25:33;1.29;86.73
66144;SHT31;52947;50.842;6.084;2023-04-03T00:28:01;1.15;86.88
66144;SHT31;52947;50.842;6.084;2023-04-03T00:30:30;1.01;87.46
66144;SHT31;52947;50.842;6.084;2023-04-03T00:32:58;1.16;86.95
66144;SHT31;52947;50.842;6.084;2023-04-03T00:35:27;1.16;86.95
66144;SHT31;52947;50.842;6.084;2023-04-03T00:37:56;0.97;87.27
66144;SHT31;52947;50.842;6.084;2023-04-03T00:40:26;0.95;87.50
66144;SHT31;52947;50.842;6.084;2023-04-03T00:42:56;0.90;87.53
66144;SHT31;52947;50.842;6.084;2023-04-03T00:45:36;0.99;87.17
66144;SHT31;52947;50.842;6.084;2023-04-03T00:48:06;1.09;87.74
66144;SHT31;52947;50.842;6.084;2023-04-03T00:50:37;0.96;87.73
66144;SHT31;52947;50.842;6.084;2023-04-03T00:53:06;0.99;88.05
66144;SHT31;52947;50.842;6.084;2023-04-03T00:55:37;0.99;87.71
66144;SHT31;52947;50.842;6.084;2023-04-03T00:58:06;0.88;88.10
66144;SHT31;52947;50.842;6.084;2023-04-03T01:00:36;0.79;88.10
66144;SHT31;52947;50.842;6.084;2023-04-03T01:03:05;0.65;88.31
66144;SHT31;52947;50.842;6.084;2023-04-03T01:05:34;0.48;88.55
66144;SHT31;52947;50.842;6.084;2023-04-03T01:08:03;0.45;89.21
66144;SHT31;52947;50.842;6.084;2023-04-03T01:10:33;0.44;88.92
66144;SHT31;52947;50.842;6.084;2023-04-03T01:13:18;0.32;89.08
66144;SHT31;52947;50.842;6.084;2023-04-03T01:15:46;0.21;89.27
66144;SHT31;52947;50.842;6.084;2023-04-03T01:18:14;0.10;89.25
66144;SHT31;52947;50.842;6.084;2023-04-03T01:21:36;0.18;89.63
66144;SHT31;52947;50.842;6.084;2023-04-03T01:24:22;-0.02;89.75
66144;SHT31;52947;50.842;6.084;2023-04-03T01:26:54;0.01;89.93
66144;SHT31;52947;50.842;6.084;2023-04-03T01:29:23;-0.07;89.62
66144;SHT31;52947;50.842;6.084;2023-04-03T01:31:54;-0.21;89.69
66144;SHT31;52947;50.842;6.084;2023-04-03T01:34:24;-0.31;90.29
66144;SHT31;52947;50.842;6.084;2023-04-03T01:36:52;-0.48;90.14
66144;SHT31;52947;50.842;6.084;2023-04-03T01:39:21;-0.62;90.23
66144;SHT31;52947;50.842;6.084;2023-04-03T01:41:50;-0.78;90.59
66144;SHT31;52947;50.842;6.084;2023-04-03T01:44:39;-0.84;90.87
66144;SHT31;52947;50.842;6.084;2023-04-03T01:47:08;-0.86;91.21
66144;SHT31;52947;50.842;6.084;2023-04-03T01:49:38;-0.91;91.32
66144;SHT31;52947;50.842;6.084;2023-04-03T01:52:06;-0.91;91.81
66144;SHT31;52947;50.842;6.084;2023-04-03T01:54:34;-0.76;92.60
66144;SHT31;52947;50.842;6.084;2023-04-03T01:57:02;-0.66;91.95
66144;SHT31;52947;50.842;6.084;2023-04-03T01:59:30;-0.58;92.19
66144;SHT31;52947;50.842;6.084;2023-04-03T02:01:58;-0.62;91.48
66144;SHT31;52947;50.842;6.084;2023-04-03T02:04:28;-0.78;91.30
66144;SHT31;52947;50.842;6.084;2023-04-03T02:06:56;-0.82;91.64
66144;SHT31;52947;50.842;6.084;2023-04-03T02:09:24;-0.85;92.25
66144;SHT31;52947;50.842;6.084;2023-04-03T02:11:53;-0.96;91.78
66144;SHT31;52947;50.842;6.084;2023-04-03T02:14:20;-0.88;93.01
66144;SHT31;52947;50.842;6.084;2023-04-03T02:16:50;-0.93;92.28
66144;SHT31;52947;50.842;6.084;2023-04-03T02:19:21;-1.03;92.08
66144;SHT31;52947;50.842;6.084;2023-04-03T02:21:50;-1.06;92.21
66144;SHT31;52947;50.842;6.084;2023-04-03T02:24:18;-1.06;92.43
66144;SHT31;52947;50.842;6.084;2023-04-03T02:26:46;-1.15;92.41
66144;SHT31;52947;50.842;6.084;2023-04-03T02:29:14;-1.21;92.53
66144;SHT31;52947;50.842;6.084;2023-04-03T02:31:42;-1.15;93.65
66144;SHT31;52947;50.842;6.084;2023-04-03T02:34:10;-1.16;93.02
66144;SHT31;52947;50.842;6.084;2023-04-03T02:36:39;-0.88;93.69
66144;SHT31;52947;50.842;6.084;2023-04-03T02:39:10;0.76;97.77
66144;SHT31;52947;50.842;6.084;2023-04-03T02:41:38;1.83;97.85
66144;SHT31;52947;50.842;6.084;2023-04-03T02:44:12;1.64;91.05
66144;SHT31;52947;50.842;6.084;2023-04-03T02:46:40;0.95;89.47
66144;SHT31;52947;50.842;6.084;2023-04-03T02:49:08;0.52;91.28
66144;SHT31;52947;50.842;6.084;2023-04-03T02:51:36;0.15;92.82
66144;SHT31;52947;50.842;6.084;2023-04-03T02:54:04;-0.14;93.40
66144;SHT31;52947;50.842;6.084;2023-04-03T02:56:36;-0.33;93.57
66144;SHT31;52947;50.842;6.084;2023-04-03T02:59:04;-0.51;93.68
66144;SHT31;52947;50.842;6.084;2023-04-03T03:01:34;-0.68;93.49
66144;SHT31;52947;50.842;6.084;2023-04-03T03:04:03;-0.82;93.48
66144;SHT31;52947;50.842;6.084;2023-04-03T03:06:31;-0.89;94.11
66144;SHT31;52947;50.842;6.084;2023-04-03T03:08:59;-1.00;93.87
66144;SHT31;52947;50.842;6.084;2023-04-03T03:11:27;-1.05;94.08
66144;SHT31;52947;50.842;6.084;2023-04-03T03:13:56;-1.00;94.53
66144;SHT31;52947;50.842;6.084;2023-04-03T03:16:24;-0.97;94.43
66144;SHT31;52947;50.842;6.084;2023-04-03T03:18:53;-0.91;94.37
66144;SHT31;52947;50.842;6.084;2023-04-03T03:21:23;-0.75;93.62
66144;SHT31;52947;50.842;6.084;2023-04-03T03:23:51;-0.84;93.58
66144;SHT31;52947;50.842;6.084;2023-04-03T03:26:19;-0.97;93.31
66144;SHT31;52947;50.842;6.084;2023-04-03T03:28:47;-1.12;93.32
66144;SHT31;52947;50.842;6.084;2023-04-03T03:31:16;-0.99;94.01
66144;SHT31;52947;50.842;6.084;2023-04-03T03:33:44;-0.96;93.97
66144;SHT31;52947;50.842;6.084;2023-04-03T03:36:12;-1.09;93.79
66144;SHT31;52947;50.842;6.084;2023-04-03T03:38:40;-1.17;93.65
66144;SHT31;52947;50.842;6.084;2023-04-03T03:41:09;-1.27;93.56
66144;SHT31;52947;50.842;6.084;2023-04-03T03:43:37;-1.39;93.56
66144;SHT31;52947;50.842;6.084;2023-04-03T03:46:06;-1.39;93.51
66144;SHT31;52947;50.842;6.084;2023-04-03T03:48:36;-1.44;93.88
66144;SHT31;52947;50.842;6.084;2023-04-03T03:51:03;-1.53;93.70
66144;SHT31;52947;50.842;6.084;2023-04-03T03:53:35;-1.61;93.77
66144;SHT31;52947;50.842;6.084;2023-04-03T03:56:06;-1.70;93.65
66144;SHT31;52947;50.842;6.084;2023-04-03T03:58:36;-1.77;93.71
66144;SHT31;52947;50.842;6.084;2023-04-03T04:01:05;-1.79;94.04
66144;SHT31;52947;50.842;6.084;2023-04-03T04:03:40;-1.81;94.04
66144;SHT31;52947;50.842;6.084;2023-04-03T04:06:11;-1.72;94.41
66144;SHT31;52947;50.842;6.084;2023-04-03T04:08:39;-1.67;94.74
66144;SHT31;52947;50.842;6.084;2023-04-03T04:11:09;-1.61;94.73
66144;SHT31;52947;50.842;6.084;2023-04-03T04:13:39;-1.53;95.15
66144;SHT31;52947;50.842;6.084;2023-04-03T04:16:08;-1.27;95.34
66144;SHT31;52947;50.842;6.084;2023-04-03T04:18:37;-1.09;94.90
66144;SHT31;52947;50.842;6.084;2023-04-03T04:21:07;-0.96;93.80
66144;SHT31;52947;50.842;6.084;2023-04-03T04:23:37;-0.95;93.89
66144;SHT31;52947;50.842;6.084;2023-04-03T04:26:05;-0.88;93.62
66144;SHT31;52947;50.842;6.084;2023-04-03T04:28:36;-0.79;93.34
66144;SHT31;52947;50.842;6.084;2023-04-03T04:31:05;-0.79;93.03
66144;SHT31;52947;50.842;6.084;2023-04-03T04:33:33;-0.53;92.39
66144;SHT31;52947;50.842;6.084;2023-04-03T04:36:03;-0.51;91.88
66144;SHT31;52947;50.842;6.084;2023-04-03T04:38:33;-0.55;92.35
66144;SHT31;52947;50.842;6.084;2023-04-03T04:41:02;-0.54;92.25
66144;SHT31;52947;50.842;6.084;2023-04-03T04:43:30;-0.57;92.42
66144;SHT31;52947;50.842;6.084;2023-04-03T04:46:02;-0.58;92.49
66144;SHT31;52947;50.842;6.084;2023-04-03T04:48:35;-0.57;92.29
66144;SHT31;52947;50.842;6.084;2023-04-03T04:51:04;-0.41;92.51
66144;SHT31;52947;50.842;6.084;2023-04-03T04:53:36;-0.44;91.43
66144;SHT31;52947;50.842;6.084;2023-04-03T04:56:04;-0.50;91.87
66144;SHT31;52947;50.842;6.084;2023-04-03T04:58:34;-0.48;92.25
66144;SHT31;52947;50.842;6.084;2023-04-03T05:01:04;-0.42;91.91
66144;SHT31;52947;50.842;6.084;2023-04-03T05:03:36;-0.57;92.05
66144;SHT31;52947;50.842;6.084;2023-04-03T05:06:05;-0.68;92.38
66144;SHT31;52947;50.842;6.084;2023-04-03T05:08:36;-0.81;92.63
66144;SHT31;52947;50.842;6.084;2023-04-03T05:11:04;-0.85;92.84
66144;SHT31;52947;50.842;6.084;2023-04-03T05:13:33;-1.05;92.60
66144;SHT31;52947;50.842;6.084;2023-04-03T05:16:01;-1.16;93.38
66144;SHT31;52947;50.842;6.084;2023-04-03T05:18:29;-1.25;92.97
66144;SHT31;52947;50.842;6.084;2023-04-03T05:21:01;-1.33;93.10
66144;SHT31;52947;50.842;6.084;2023-04-03T05:23:30;-1.30;94.12
66144;SHT31;52947;50.842;6.084;2023-04-03T05:26:02;-1.30;93.69
66144;SHT31;52947;50.842;6.084;2023-04-03T05:28:30;-1.17;94.31
66144;SHT31;52947;50.842;6.084;2023-04-03T05:30:59;-1.16;94.09
66144;SHT31;52947;50.842;6.084;2023-04-03T05:33:33;-1.07;94.01
66144;SHT31;52947;50.842;6.084;2023-04-03T05:36:04;-0.82;93.99
66144;SHT31;52947;50.842;6.084;2023-04-03T05:38:37;-0.51;92.67
66144;SHT31;52947;50.842;6.084;2023-04-03T05:41:07;-0.30;92.38
66144;SHT31;52947;50.842;6.084;2023-04-03T05:43:35;0.52;90.56
66144;SHT31;52947;50.842;6.084;2023-04-03T05:46:09;1.39;89.12
66144;SHT31;52947;50.842;6.084;2023-04-03T05:48:38;2.29;86.79
66144;SHT31;52947;50.842;6.084;2023-04-03T05:51:14;4.07;90.09
66144;SHT31;52947;50.842;6.084;2023-04-03T05:53:44;5.16;84.22
66144;SHT31;52947;50.842;6.084;2023-04-03T05:56:13;6.28;84.22
66144;SHT31;52947;50.842;6.084;2023-04-03T05:58:42;7.04;79.02
66144;SHT31;52947;50.842;6.084;2023-04-03T06:01:10;7.51;78.76
66144;SHT31;52947;50.842;6.084;2023-04-03T06:03:39;7.63;78.77
66144;SHT31;52947;50.842;6.084;2023-04-03T06:06:10;8.14;76.73
66144;SHT31;52947;50.842;6.084;2023-04-03T06:08:39;8.93;75.38
66144;SHT31;52947;50.842;6.084;2023-04-03T06:11:07;10.19;73.20
66144;SHT31;52947;50.842;6.084;2023-04-03T06:13:38;10.38;67.68
66144;SHT31;52947;50.842;6.084;2023-04-03T06:16:06;11.21;65.37
66144;SHT31;52947;50.842;6.084;2023-04-03T06:18:36;11.48;62.04
66144;SHT31;52947;50.842;6.084;2023-04-03T06:21:04;12.12;60.03
66144;SHT31;52947;50.842;6.084;2023-04-03T06:23:34;12.41;59.88
66144;SHT31;52947;50.842;6.084;2023-04-03T06:26:02;12.57;57.41
66144;SHT31;52947;50.842;6.084;2023-04-03T06:28:32;13.43;56.24
66144;SHT31;52947;50.842;6.084;2023-04-03T06:31:01;13.63;55.69
66144;SHT31;52947;50.842;6.084;2023-04-03T06:33:29;13.35;56.06
66144;SHT31;52947;50.842;6.084;2023-04-03T06:35:58;14.18;52.62
66144;SHT31;52947;50.842;6.084;2023-04-03T06:38:25;14.52;53.46
66144;SHT31;52947;50.842;6.084;2023-04-03T06:40:53;15.43;52.83
66144;SHT31;52947;50.842;6.084;2023-04-03T06:43:22;14.95;51.06
66144;SHT31;52947;50.842;6.084;2023-04-03T06:45:50;14.41;52.04
66144;SHT31;52947;50.842;6.084;2023-04-03T06:48:20;14.28;52.13
66144;SHT31;52947;50.842;6.084;2023-04-03T06:50:48;14.26;50.93
66144;SHT31;52947;50.842;6.084;2023-04-03T06:53:16;15.00;48.03
66144;SHT31;52947;50.842;6.084;2023-04-03T06:55:44;14.73;49.52
66144;SHT31;52947;50.842;6.084;2023-04-03T06:58:13;14.85;50.54
66144;SHT31;52947;50.842;6.084;2023-04-03T07:00:45;13.74;50.66
66144;SHT31;52947;50.842;6.084;2023-04-03T07:03:13;13.90;50.02
66144;SHT31;52947;50.842;6.084;2023-04-03T07:05:44;14.77;50.66
66144;SHT31;52947;50.842;6.084;2023-04-03T07:08:12;15.04;48.26
66144;SHT31;52947;50.842;6.084;2023-04-03T07:10:40;14.96;47.03
66144;SHT31;52947;50.842;6.084;2023-04-03T07:13:08;15.34;50.97
66144;SHT31;52947;50.842;6.084;2023-04-03T07:15:36;15.13;46.83
66144;SHT31;52947;50.842;6.084;2023-04-03T07:18:04;16.50;47.89
66144;SHT31;52947;50.842;6.084;2023-04-03T07:20:32;16.57;45.06
66144;SHT31;52947;50.842;6.084;2023-04-03T07:23:02;16.30;47.39
66144;SHT31;52947;50.842;6.084;2023-04-03T07:25:30;16.32;44.34
66144;SHT31;52947;50.842;6.084;2023-04-03T07:28:00;14.96;47.31
66144;SHT31;52947;50.842;6.084;2023-04-03T07:30:28;14.87;47.13
66144;SHT31;52947;50.842;6.084;2023-04-03T07:32:56;15.72;46.23
66144;SHT31;52947;50.842;6.084;2023-04-03T07:35:24;16.66;45.65
66144;SHT31;52947;50.842;6.084;2023-04-03T07:37:52;16.52;45.68
66144;SHT31;52947;50.842;6.084;2023-04-03T07:40:21;16.59;42.66
66144;SHT31;52947;50.842;6.084;2023-04-03T07:42:49;15.94;45.56
66144;SHT31;52947;50.842;6.084;2023-04-03T07:45:17;16.45;43.83
66144;SHT31;52947;50.842;6.084;2023-04-03T07:47:45;15.69;44.08
66144;SHT31;52947;50.842;6.084;2023-04-03T07:50:14;14.68;45.66
66144;SHT31;52947;50.842;6.084;2023-04-03T07:52:42;14.22;45.69
66144;SHT31;52947;50.842;6.084;2023-04-03T07:55:11;15.61;45.28
66144;SHT31;52947;50.842;6.084;2023-04-03T07:57:40;15.38;46.10
66144;SHT31;52947;50.842;6.084;2023-04-03T08:00:10;16.47;42.64
66144;SHT31;52947;50.842;6.084;2023-04-03T08:02:40;15.31;45.10
66144;SHT31;52947;50.842;6.084;2023-04-03T08:05:08;16.46;44.03
66144;SHT31;52947;50.842;6.084;2023-04-03T08:07:36;14.45;44.76
66144;SHT31;52947;50.842;6.084;2023-04-03T08:10:06;14.55;45.26
66144;SHT31;52947;50.842;6.084;2023-04-03T08:12:34;14.38;47.83
66144;SHT31;52947;50.842;6.084;2023-04-03T08:15:06;15.37;44.76
66144;SHT31;52947;50.842;6.084;2023-04-03T08:17:34;14.79;45.51
66144;SHT31;52947;50.842;6.084;2023-04-03T08:20:03;15.41;44.55
66144;SHT31;52947;50.842;6.084;2023-04-03T08:22:31;15.47;43.82
66144;SHT31;52947;50.842;6.084;2023-04-03T08:24:59;15.89;43.59
66144;SHT31;52947;50.842;6.084;2023-04-03T08:27:28;15.37;45.44
66144;SHT31;52947;50.842;6.084;2023-04-03T08:29:56;16.94;41.66
66144;SHT31;52947;50.842;6.084;2023-04-03T08:32:25;15.91;43.53
66144;SHT31;52947;50.842;6.084;2023-04-03T08:34:53;14.97;45.70
66144;SHT31;52947;50.842;6.084;2023-04-03T08:37:21;13.32;49.59
66144;SHT31;52947;50.842;6.084;2023-04-03T08:39:49;15.46;45.17
66144;SHT31;52947;50.842;6.084;2023-04-03T08:42:31;16.18;45.12
66144;SHT31;52947;50.842;6.084;2023-04-03T08:45:09;16.25;43.84
66144;SHT31;52947;50.842;6.084;2023-04-03T08:47:47;16.13;44.00
66144;SHT31;52947;50.842;6.084;2023-04-03T08:50:20;15.22;46.47
66144;SHT31;52947;50.842;6.084;2023-04-03T08:52:50;15.41;46.01
66144;SHT31;52947;50.842;6.084;2023-04-03T08:55:24;14.87;45.94
66144;SHT31;52947;50.842;6.084;2023-04-03T08:57:58;13.71;47.27
66144;SHT31;52947;50.842;6.084;2023-04-03T09:00:30;13.35;49.65
66144;SHT31;52947;50.842;6.084;2023-04-03T09:03:03;13.81;48.41
66144;SHT31;52947;50.842;6.084;2023-04-03T09:05:39;14.55;47.01
66144;SHT31;52947;50.842;6.084;2023-04-03T09:08:17;13.69;48.65
66144;SHT31;52947;50.842;6.084;2023-04-03T09:10:46;14.92;46.15
66144;SHT31;52947;50.842;6.084;2023-04-03T09:13:24;14.22;47.57
66144;SHT31;52947;50.842;6.084;2023-04-03T09:15:53;14.93;45.65
66144;SHT31;52947;50.842;6.084;2023-04-03T09:18:28;14.21;44.87
66144;SHT31;52947;50.842;6.084;2023-04-03T09:21:04;13.73;46.24
66144;SHT31;52947;50.842;6.084;2023-04-03T09:23:40;13.80;45.40
66144;SHT31;52947;50.842;6.084;2023-04-03T09:26:14;13.50;46.85
66144;SHT31;52947;50.842;6.084;2023-04-03T09:28:44;13.26;44.87
66144;SHT31;52947;50.842;6.084;2023-04-03T09:31:20;14.00;43.96
66144;SHT31;52947;50.842;6.084;2023-04-03T09:33:53;13.45;46.56
66144;SHT31;52947;50.842;6.084;2023-04-03T09:36:38;13.94;45.63
66144;SHT31;52947;50.842;6.084;2023-04-03T09:39:11;13.32;47.90
66144;SHT31;52947;50.842;6.084;2023-04-03T09:41:39;13.38;46.93
66144;SHT31;52947;50.842;6.084;2023-04-03T09:44:21;13.59;46.82
66144;SHT31;52947;50.842;6.084;2023-04-03T09:46:50;13.87;46.53
66144;SHT31;52947;50.842;6.084;2023-04-03T09:49:19;13.62;45.99
66144;SHT31;52947;50.842;6.084;2023-04-03T09:51:47;13.36;46.05
66144;SHT31;52947;50.842;6.084;2023-04-03T09:54:36;14.07;46.32
66144;SHT31;52947;50.842;6.084;2023-04-03T09:57:10;13.66;45.02
66144;SHT31;52947;50.842;6.084;2023-04-03T09:59:44;12.60;49.08
66144;SHT31;52947;50.842;6.084;2023-04-03T10:02:28;13.23;47.86
66144;SHT31;52947;50.842;6.084;2023-04-03T10:05:00;9.51;53.07
66144;SHT31;52947;50.842;6.084;2023-04-03T10:07:34;10.91;53.04
66144;SHT31;52947;50.842;6.084;2023-04-03T10:10:16;12.74;48.67
66144;SHT31;52947;50.842;6.084;2023-04-03T10:12:46;13.42;46.79
66144;SHT31;52947;50.842;6.084;2023-04-03T10:15:16;13.80;44.96
66144;SHT31;52947;50.842;6.084;2023-04-03T10:17:54;14.75;44.44
66144;SHT31;52947;50.842;6.084;2023-04-03T10:20:33;15.06;43.72
66144;SHT31;52947;50.842;6.084;2023-04-03T10:23:15;14.05;45.99
66144;SHT31;52947;50.842;6.084;2023-04-03T10:25:54;13.77;45.74
66144;SHT31;52947;50.842;6.084;2023-04-03T10:28:30;11.76;46.72
66144;SHT31;52947;50.842;6.084;2023-04-03T10:31:03;12.77;45.70
66144;SHT31;52947;50.842;6.084;2023-04-03T10:33:51;12.96;44.74
66144;SHT31;52947;50.842;6.084;2023-04-03T10:36:32;14.41;43.61
66144;SHT31;52947;50.842;6.084;2023-04-03T10:39:08;14.90;40.94
66144;SHT31;52947;50.842;6.084;2023-04-03T10:41:46;13.27;41.60
66144;SHT31;52947;50.842;6.084;2023-04-03T10:44:32;12.84;41.02
66144;SHT31;52947;50.842;6.084;2023-04-03T10:47:08;12.68;42.52
66144;SHT31;52947;50.842;6.084;2023-04-03T10:49:46;12.37;43.24
66144;SHT31;52947;50.842;6.084;2023-04-03T10:52:31;13.46;42.83
66144;SHT31;52947;50.842;6.084;2023-04-03T10:55:16;12.00;46.99
66144;SHT31;52947;50.842;6.084;2023-04-03T10:57:50;12.24;44.26
66144;SHT31;52947;50.842;6.084;2023-04-03T11:00:35;12.57;43.12
66144;SHT31;52947;50.842;6.084;2023-04-03T11:03:10;12.36;42.79
66144;SHT31;52947;50.842;6.084;2023-04-03T11:05:42;13.29;43.16
66144;SHT31;52947;50.842;6.084;2023-04-03T11:08:21;12.81;43.49
66144;SHT31;52947;50.842;6.084;2023-04-03T11:10:55;10.13;45.88
66144;SHT31;52947;50.842;6.084;2023-04-03T11:13:27;10.71;47.56
66144;SHT31;52947;50.842;6.084;2023-04-03T11:15:58;12.13;44.93
66144;SHT31;52947;50.842;6.084;2023-04-03T11:18:31;11.86;43.74
66144;SHT31;52947;50.842;6.084;2023-04-03T11:21:04;12.19;44.76
66144;SHT31;52947;50.842;6.084;2023-04-03T11:23:37;11.01;46.61
66144;SHT31;52947;50.842;6.084;2023-04-03T11:26:17;11.69;47.65
66144;SHT31;52947;50.842;6.084;2023-04-03T11:28:52;12.34;45.22
66144;SHT31;52947;50.842;6.084;2023-04-03T11:31:33;11.69;44.31
66144;SHT31;52947;50.842;6.084;2023-04-03T11:34:13;10.60;44.66
66144;SHT31;52947;50.842;6.084;2023-04-03T11:36:47;11.85;43.06
66144;SHT31;52947;50.842;6.084;2023-04-03T11:39:22;10.84;43.65
66144;SHT31;52947;50.842;6.084;2023-04-03T11:41:51;10.49;44.85
66144;SHT31;52947;50.842;6.084;2023-04-03T11:44:37;10.19;45.97
66144;SHT31;52947;50.842;6.084;2023-04-03T11:47:06;10.22;48.29
66144;SHT31;52947;50.842;6.084;2023-04-03T11:52:56;11.62;43.88
66144;SHT31;52947;50.842;6.084;2023-04-03T11:55:52;12.48;43.39
66144;SHT31;52947;50.842;6.084;2023-04-03T11:58:22;11.99;43.95
66144;SHT31;52947;50.842;6.084;2023-04-03T12:01:01;12.17;42.63
66144;SHT31;52947;50.842;6.084;2023-04-03T12:09:31;11.92;46.09
66144;SHT31;52947;50.842;6.084;2023-04-03T12:12:22;11.32;46.56
66144;SHT31;52947;50.842;6.084;2023-04-03T12:14:51;12.17;44.11
66144;SHT31;52947;50.842;6.084;2023-04-03T12:17:22;12.31;43.50
66144;SHT31;52947;50.842;6.084;2023-04-03T12:19:51;12.78;42.71
66144;SHT31;52947;50.842;6.084;2023-04-03T12:22:20;12.29;43.22
66144;SHT31;52947;50.842;6.084;2023-04-03T12:24:49;12.85;41.18
66144;SHT31;52947;50.842;6.084;2023-04-03T12:27:36;13.11;41.33
66144;SHT31;52947;50.842;6.084;2023-04-03T12:30:16;12.92;40.47
66144;SHT31;52947;50.842;6.084;2023-04-03T12:33:10;12.29;41.97
66144;SHT31;52947;50.842;6.084;2023-04-03T12:35:51;11.97;41.99
66144;SHT31;52947;50.842;6.084;2023-04-03T12:38:58;12.80;40.59
66144;SHT31;52947;50.842;6.084;2023-04-03T12:41:36;12.45;43.03
66144;SHT31;52947;50.842;6.084;2023-04-03T12:44:30;10.81;44.61
66144;SHT31;52947;50.842;6.084;2023-04-03T12:47:02;11.48;45.22
66144;SHT31;52947;50.842;6.084;2023-04-03T12:49:38;12.22;42.57
66144;SHT31;52947;50.842;6.084;2023-04-03T12:52:18;10.71;43.67
66144;SHT31;52947;50.842;6.084;2023-04-03T12:54:47;11.34;44.29
66144;SHT31;52947;50.842;6.084;2023-04-03T12:57:17;12.47;40.62
66144;SHT31;52947;50.842;6.084;2023-04-03T12:59:47;11.00;41.05
66144;SHT31;52947;50.842;6.084;2023-04-03T13:02:21;11.17;42.46
66144;SHT31;52947;50.842;6.084;2023-04-03T13:04:50;10.67;43.04
66144;SHT31;52947;50.842;6.084;2023-04-03T13:07:23;11.12;41.64
66144;SHT31;52947;50.842;6.084;2023-04-03T13:09:58;12.06;41.04
66144;SHT31;52947;50.842;6.084;2023-04-03T13:12:27;12.12;40.52
66144;SHT31;52947;50.842;6.084;2023-04-03T13:15:01;12.17;40.34
66144;SHT31;52947;50.842;6.084;2023-04-03T13:17:31;11.45;41.27
66144;SHT31;52947;50.842;6.084;2023-04-03T13:20:15;11.01;41.54
66144;SHT31;52947;50.842;6.084;2023-04-03T13:22:48;11.28;39.82
66144;SHT31;52947;50.842;6.084;2023-04-03T13:25:20;11.66;41.36
66144;SHT31;52947;50.842;6.084;2023-04-03T13:27:49;11.31;42.78
66144;SHT31;52947;50.842;6.084;2023-04-03T13:30:28;11.71;41.81
66144;SHT31;52947;50.842;6.084;2023-04-03T13:32:59;10.45;42.08
66144;SHT31;52947;50.842;6.084;2023-04-03T13:35:30;9.97;43.29
66144;SHT31;52947;50.842;6.084;2023-04-03T13:38:01;10.25;43.53
66144;SHT31;52947;50.842;6.084;2023-04-03T13:40:29;10.39;42.42
66144;SHT31;52947;50.842;6.084;2023-04-03T13:43:18;10.26;43.77
66144;SHT31;52947;50.842;6.084;2023-04-03T13:46:00;10.53;43.53
66144;SHT31;52947;50.842;6.084;2023-04-03T13:48:39;10.38;43.43
66144;SHT31;52947;50.842;6.084;2023-04-03T13:51:19;10.19;44.50
66144;SHT31;52947;50.842;6.084;2023-04-03T13:53:50;9.33;46.59
66144;SHT31;52947;50.842;6.084;2023-04-03T13:56:23;9.99;47.39
66144;SHT31;52947;50.842;6.084;2023-04-03T13:58:58;9.44;45.95
66144;SHT31;52947;50.842;6.084;2023-04-03T14:01:40;9.46;47.24
66144;SHT31;52947;50.842;6.084;2023-04-03T14:04:16;9.52;46.62
66144;SHT31;52947;50.842;6.084;2023-04-03T14:06:45;9.71;46.09
66144;SHT31;52947;50.842;6.084;2023-04-03T14:09:15;9.29;46.56
66144;SHT31;52947;50.842;6.084;2023-04-03T14:11:44;9.22;46.64
66144;SHT31;52947;50.842;6.084;2023-04-03T14:14:15;9.48;45.92
66144;SHT31;52947;50.842;6.084;2023-04-03T14:16:49;9.44;45.61
66144;SHT31;52947;50.842;6.084;2023-04-03T14:19:22;9.31;45.69
66144;SHT31;52947;50.842;6.084;2023-04-03T14:21:50;9.55;46.08
66144;SHT31;52947;50.842;6.084;2023-04-03T14:24:19;9.47;46.36
66144;SHT31;52947;50.842;6.084;2023-04-03T14:26:47;9.37;44.85
66144;SHT31;52947;50.842;6.084;2023-04-03T14:29:15;9.55;45.31
66144;SHT31;52947;50.842;6.084;2023-04-03T14:31:47;9.38;45.64
66144;SHT31;52947;50.842;6.084;2023-04-03T14:34:26;9.13;45.18
66144;SHT31;52947;50.842;6.084;2023-04-03T14:36:54;9.27;45.56
66144;SHT31;52947;50.842;6.084;2023-04-03T14:39:22;9.36;44.75
66144;SHT31;52947;50.842;6.084;2023-04-03T14:41:49;9.51;45.16
66144;SHT31;52947;50.842;6.084;2023-04-03T14:44:17;9.10;44.67
66144;SHT31;52947;50.842;6.084;2023-04-03T14:46:46;9.09;44.72
66144;SHT31;52947;50.842;6.084;2023-04-03T14:49:25;8.95;44.36
66144;SHT31;52947;50.842;6.084;2023-04-03T14:51:55;8.73;45.36
66144;SHT31;52947;50.842;6.084;2023-04-03T14:54:23;8.92;45.63
66144;SHT31;52947;50.842;6.084;2023-04-03T14:56:55;8.95;44.29
66144;SHT31;52947;50.842;6.084;2023-04-03T14:59:24;9.02;44.85
66144;SHT31;52947;50.842;6.084;2023-04-03T15:01:54;8.68;42.59
66144;SHT31;52947;50.842;6.084;2023-04-03T15:04:22;8.71;43.68
66144;SHT31;52947;50.842;6.084;2023-04-03T15:06:51;8.89;44.27
66144;SHT31;52947;50.842;6.084;2023-04-03T15:09:19;9.00;45.23
66144;SHT31;52947;50.842;6.084;2023-04-03T15:11:48;8.85;43.77
66144;SHT31;52947;50.842;6.084;2023-04-03T15:14:17;8.95;44.07
66144;SHT31;52947;50.842;6.084;2023-04-03T15:17:04;8.90;43.87
66144;SHT31;52947;50.842;6.084;2023-04-03T15:19:36;8.92;44.43
66144;SHT31;52947;50.842;6.084;2023-04-03T15:22:04;8.92;43.91
66144;SHT31;52947;50.842;6.084;2023-04-03T15:24:32;8.92;43.12
66144;SHT31;52947;50.842;6.084;2023-04-03T15:27:00;8.95;43.22
66144;SHT31;52947;50.842;6.084;2023-04-03T15:29:29;9.00;43.71
66144;SHT31;52947;50.842;6.084;2023-04-03T15:31:56;8.79;43.39
66144;SHT31;52947;50.842;6.084;2023-04-03T15:34:26;8.79;43.18
66144;SHT31;52947;50.842;6.084;2023-04-03T15:36:54;8.86;44.52
66144;SHT31;52947;50.842;6.084;2023-04-03T15:39:22;8.65;44.65
66144;SHT31;52947;50.842;6.084;2023-04-03T15:41:50;8.65;44.31
66144;SHT31;52947;50.842;6.084;2023-04-03T15:44:19;8.66;44.44
66144;SHT31;52947;50.842;6.084;2023-04-03T15:46:47;8.66;45.31
66144;SHT31;52947;50.842;6.084;2023-04-03T15:49:18;8.66;45.12
66144;SHT31;52947;50.842;6.084;2023-04-03T15:51:48;8.61;45.70
66144;SHT31;52947;50.842;6.084;2023-04-03T15:54:16;8.64;47.06
66144;SHT31;52947;50.842;6.084;2023-04-03T15:56:44;8.62;46.89
66144;SHT31;52947;50.842;6.084;2023-04-03T15:59:12;8.44;46.54
66144;SHT31;52947;50.842;6.084;2023-04-03T16:01:40;8.47;47.24
66144;SHT31;52947;50.842;6.084;2023-04-03T16:04:08;8.47;47.68
66144;SHT31;52947;50.842;6.084;2023-04-03T16:06:37;8.52;47.66
66144;SHT31;52947;50.842;6.084;2023-04-03T16:09:06;8.49;48.04
66144;SHT31;52947;50.842;6.084;2023-04-03T16:11:34;8.42;47.51